Terminal Aerodrome Forecast
Issued by NWS

Home | Current Version | Previous Version | Text Only | Print | Product List | Glossary On
Versions: 1 2 3 4 5 6 7 8 9 10 11 12 13 14 15 16 17 18 19 20 21 22 23 24 25 26 27 28 29 30 31 32 33 34 35
000
FTUS41 KBOX 271740
TAFACK
TAF
KACK 271740Z 2718/2818 20016KT P6SM OVC015
     FM272100 20014KT P6SM OVC025
     FM280000 19014KT P6SM OVC008 WS020/22040KT
     FM280100 20014KT P6SM OVC008
     FM280600 20013KT 1SM BR OVC003
     FM280700 20013KT 1/2SM FG OVC003
     FM281300 20014KT 3SM BR BKN003=

USA.gov is the U.S. government's official web portal to all federal, state and local government web resources and services.